sensor_id;sensor_type;location;lat;lon;timestamp;P1;durP1;ratioP1;P2;durP2;ratioP2
76256;SDS011;65074;50.436;8.672;2023-01-19T00:01:13;16.05;;;5.93;;
76256;SDS011;65074;50.436;8.672;2023-01-19T00:03:39;10.63;;;5.63;;
76256;SDS011;65074;50.436;8.672;2023-01-19T00:06:05;18.25;;;5.60;;
76256;SDS011;65074;50.436;8.672;2023-01-19T00:08:31;10.80;;;5.18;;
76256;SDS011;65074;50.436;8.672;2023-01-19T00:10:56;10.13;;;5.93;;
76256;SDS011;65074;50.436;8.672;2023-01-19T00:13:22;12.45;;;5.45;;
76256;SDS011;65074;50.436;8.672;2023-01-19T00:15:47;10.30;;;4.82;;
76256;SDS011;65074;50.436;8.672;2023-01-19T00:18:13;11.27;;;5.88;;
76256;SDS011;65074;50.436;8.672;2023-01-19T00:20:38;10.20;;;5.45;;
76256;SDS011;65074;50.436;8.672;2023-01-19T00:23:04;14.25;;;5.45;;
76256;SDS011;65074;50.436;8.672;2023-01-19T00:25:32;15.70;;;6.35;;
76256;SDS011;65074;50.436;8.672;2023-01-19T00:27:58;13.05;;;7.18;;
76256;SDS011;65074;50.436;8.672;2023-01-19T00:30:23;14.65;;;6.30;;
76256;SDS011;65074;50.436;8.672;2023-01-19T00:32:48;13.40;;;6.28;;
76256;SDS011;65074;50.436;8.672;2023-01-19T00:35:14;11.85;;;6.22;;
76256;SDS011;65074;50.436;8.672;2023-01-19T00:37:39;14.70;;;5.97;;
76256;SDS011;65074;50.436;8.672;2023-01-19T00:40:05;9.77;;;5.55;;
76256;SDS011;65074;50.436;8.672;2023-01-19T00:42:31;13.88;;;6.13;;
76256;SDS011;65074;50.436;8.672;2023-01-19T00:45:13;14.13;;;5.82;;
76256;SDS011;65074;50.436;8.672;2023-01-19T00:47:40;13.00;;;5.88;;
76256;SDS011;65074;50.436;8.672;2023-01-19T00:50:06;12.55;;;5.32;;
76256;SDS011;65074;50.436;8.672;2023-01-19T00:52:33;16.55;;;5.63;;
76256;SDS011;65074;50.436;8.672;2023-01-19T00:54:58;15.13;;;6.32;;
76256;SDS011;65074;50.436;8.672;2023-01-19T00:57:24;16.88;;;7.20;;
76256;SDS011;65074;50.436;8.672;2023-01-19T00:59:50;12.05;;;6.13;;
76256;SDS011;65074;50.436;8.672;2023-01-19T01:02:15;17.75;;;7.53;;
76256;SDS011;65074;50.436;8.672;2023-01-19T01:04:41;16.27;;;5.90;;
76256;SDS011;65074;50.436;8.672;2023-01-19T01:07:06;10.95;;;6.57;;
76256;SDS011;65074;50.436;8.672;2023-01-19T01:09:31;11.80;;;4.68;;
76256;SDS011;65074;50.436;8.672;2023-01-19T01:11:57;10.40;;;5.47;;
76256;SDS011;65074;50.436;8.672;2023-01-19T01:14:22;12.48;;;5.88;;
76256;SDS011;65074;50.436;8.672;2023-01-19T01:16:48;12.43;;;6.15;;
76256;SDS011;65074;50.436;8.672;2023-01-19T01:19:14;13.95;;;6.75;;
76256;SDS011;65074;50.436;8.672;2023-01-19T01:21:42;12.23;;;6.13;;
76256;SDS011;65074;50.436;8.672;2023-01-19T01:24:08;13.18;;;5.47;;
76256;SDS011;65074;50.436;8.672;2023-01-19T01:26:34;18.58;;;7.38;;
76256;SDS011;65074;50.436;8.672;2023-01-19T01:28:59;14.25;;;7.07;;
76256;SDS011;65074;50.436;8.672;2023-01-19T01:31:25;14.60;;;6.80;;
76256;SDS011;65074;50.436;8.672;2023-01-19T01:33:50;14.63;;;7.25;;
76256;SDS011;65074;50.436;8.672;2023-01-19T01:36:15;14.48;;;7.45;;
76256;SDS011;65074;50.436;8.672;2023-01-19T01:38:43;12.13;;;6.38;;
76256;SDS011;65074;50.436;8.672;2023-01-19T01:41:08;13.35;;;7.53;;
76256;SDS011;65074;50.436;8.672;2023-01-19T01:46:29;14.02;;;8.05;;
76256;SDS011;65074;50.436;8.672;2023-01-19T01:49:01;20.10;;;7.93;;
76256;SDS011;65074;50.436;8.672;2023-01-19T01:54:18;16.25;;;8.32;;
76256;SDS011;65074;50.436;8.672;2023-01-19T01:56:58;17.30;;;6.95;;
76256;SDS011;65074;50.436;8.672;2023-01-19T02:02:06;17.17;;;7.82;;
76256;SDS011;65074;50.436;8.672;2023-01-19T02:04:55;14.82;;;7.35;;
76256;SDS011;65074;50.436;8.672;2023-01-19T02:10:17;11.00;;;5.18;;
76256;SDS011;65074;50.436;8.672;2023-01-19T02:13:02;8.85;;;5.60;;
76256;SDS011;65074;50.436;8.672;2023-01-19T02:15:44;14.65;;;6.75;;
76256;SDS011;65074;50.436;8.672;2023-01-19T02:18:09;11.23;;;6.13;;
76256;SDS011;65074;50.436;8.672;2023-01-19T02:20:35;11.95;;;5.78;;
76256;SDS011;65074;50.436;8.672;2023-01-19T02:23:02;14.15;;;6.40;;
76256;SDS011;65074;50.436;8.672;2023-01-19T02:25:32;14.57;;;6.70;;
76256;SDS011;65074;50.436;8.672;2023-01-19T02:27:57;12.48;;;5.97;;
76256;SDS011;65074;50.436;8.672;2023-01-19T02:30:24;14.15;;;6.03;;
76256;SDS011;65074;50.436;8.672;2023-01-19T02:32:50;12.55;;;6.88;;
76256;SDS011;65074;50.436;8.672;2023-01-19T02:35:16;13.60;;;6.55;;
76256;SDS011;65074;50.436;8.672;2023-01-19T02:37:42;14.43;;;6.15;;
76256;SDS011;65074;50.436;8.672;2023-01-19T02:40:13;9.77;;;5.55;;
76256;SDS011;65074;50.436;8.672;2023-01-19T02:42:44;11.00;;;5.72;;
76256;SDS011;65074;50.436;8.672;2023-01-19T02:45:13;15.05;;;6.57;;
76256;SDS011;65074;50.436;8.672;2023-01-19T02:47:45;16.05;;;6.88;;
76256;SDS011;65074;50.436;8.672;2023-01-19T03:02:22;12.18;;;6.13;;
76256;SDS011;65074;50.436;8.672;2023-01-19T03:04:59;12.93;;;6.05;;
76256;SDS011;65074;50.436;8.672;2023-01-19T03:17:47;14.27;;;6.63;;
76256;SDS011;65074;50.436;8.672;2023-01-19T03:20:16;17.42;;;7.13;;
76256;SDS011;65074;50.436;8.672;2023-01-19T03:22:46;15.77;;;6.97;;
76256;SDS011;65074;50.436;8.672;2023-01-19T03:25:16;13.68;;;6.22;;
76256;SDS011;65074;50.436;8.672;2023-01-19T03:27:43;12.07;;;6.10;;
76256;SDS011;65074;50.436;8.672;2023-01-19T03:30:12;11.13;;;5.53;;
76256;SDS011;65074;50.436;8.672;2023-01-19T03:32:47;11.48;;;5.30;;
76256;SDS011;65074;50.436;8.672;2023-01-19T03:35:16;10.40;;;5.57;;
76256;SDS011;65074;50.436;8.672;2023-01-19T03:37:46;11.27;;;5.80;;
76256;SDS011;65074;50.436;8.672;2023-01-19T03:40:14;11.15;;;5.70;;
76256;SDS011;65074;50.436;8.672;2023-01-19T03:42:41;10.90;;;4.50;;
76256;SDS011;65074;50.436;8.672;2023-01-19T03:45:08;11.52;;;6.30;;
76256;SDS011;65074;50.436;8.672;2023-01-19T03:47:36;11.98;;;5.28;;
76256;SDS011;65074;50.436;8.672;2023-01-19T03:50:02;15.68;;;6.15;;
76256;SDS011;65074;50.436;8.672;2023-01-19T03:52:33;13.00;;;4.88;;
76256;SDS011;65074;50.436;8.672;2023-01-19T03:54:59;12.23;;;5.97;;
76256;SDS011;65074;50.436;8.672;2023-01-19T03:57:25;11.45;;;5.65;;
76256;SDS011;65074;50.436;8.672;2023-01-19T03:59:51;9.60;;;5.20;;
76256;SDS011;65074;50.436;8.672;2023-01-19T04:02:17;10.95;;;5.28;;
76256;SDS011;65074;50.436;8.672;2023-01-19T04:04:42;13.73;;;6.82;;
76256;SDS011;65074;50.436;8.672;2023-01-19T04:07:09;12.57;;;6.10;;
76256;SDS011;65074;50.436;8.672;2023-01-19T04:09:35;10.77;;;5.68;;
76256;SDS011;65074;50.436;8.672;2023-01-19T04:12:00;9.88;;;5.28;;
76256;SDS011;65074;50.436;8.672;2023-01-19T04:14:26;10.02;;;5.38;;
76256;SDS011;65074;50.436;8.672;2023-01-19T04:16:51;9.32;;;4.72;;
76256;SDS011;65074;50.436;8.672;2023-01-19T04:19:17;10.57;;;5.18;;
76256;SDS011;65074;50.436;8.672;2023-01-19T04:21:42;10.02;;;5.20;;
76256;SDS011;65074;50.436;8.672;2023-01-19T04:24:08;9.50;;;5.35;;
76256;SDS011;65074;50.436;8.672;2023-01-19T04:26:34;12.05;;;6.15;;
76256;SDS011;65074;50.436;8.672;2023-01-19T04:28:59;8.73;;;4.75;;
76256;SDS011;65074;50.436;8.672;2023-01-19T04:31:24;6.07;;;3.25;;
76256;SDS011;65074;50.436;8.672;2023-01-19T04:33:50;14.70;;;5.45;;
76256;SDS011;65074;50.436;8.672;2023-01-19T04:36:15;16.13;;;6.47;;
76256;SDS011;65074;50.436;8.672;2023-01-19T04:38:40;5.90;;;3.10;;
76256;SDS011;65074;50.436;8.672;2023-01-19T04:41:06;10.27;;;5.28;;
76256;SDS011;65074;50.436;8.672;2023-01-19T04:43:31;5.25;;;2.40;;
76256;SDS011;65074;50.436;8.672;2023-01-19T04:45:56;14.20;;;5.45;;
76256;SDS011;65074;50.436;8.672;2023-01-19T04:48:23;17.55;;;6.25;;
76256;SDS011;65074;50.436;8.672;2023-01-19T04:50:49;9.52;;;4.68;;
76256;SDS011;65074;50.436;8.672;2023-01-19T04:53:15;11.63;;;4.90;;
76256;SDS011;65074;50.436;8.672;2023-01-19T04:55:42;9.52;;;4.68;;
76256;SDS011;65074;50.436;8.672;2023-01-19T04:58:08;10.80;;;5.38;;
76256;SDS011;65074;50.436;8.672;2023-01-19T05:00:34;10.27;;;5.45;;
76256;SDS011;65074;50.436;8.672;2023-01-19T05:03:00;9.57;;;5.18;;
76256;SDS011;65074;50.436;8.672;2023-01-19T05:05:26;9.57;;;4.40;;
76256;SDS011;65074;50.436;8.672;2023-01-19T05:07:51;12.63;;;4.70;;
76256;SDS011;65074;50.436;8.672;2023-01-19T05:10:17;10.55;;;5.25;;
76256;SDS011;65074;50.436;8.672;2023-01-19T05:12:43;8.60;;;4.97;;
76256;SDS011;65074;50.436;8.672;2023-01-19T05:15:08;8.60;;;5.68;;
76256;SDS011;65074;50.436;8.672;2023-01-19T05:17:35;8.82;;;5.30;;
76256;SDS011;65074;50.436;8.672;2023-01-19T05:20:01;13.05;;;5.47;;
76256;SDS011;65074;50.436;8.672;2023-01-19T05:22:27;10.05;;;5.35;;
76256;SDS011;65074;50.436;8.672;2023-01-19T05:24:53;9.32;;;5.55;;
76256;SDS011;65074;50.436;8.672;2023-01-19T05:27:18;10.75;;;5.60;;
76256;SDS011;65074;50.436;8.672;2023-01-19T05:29:44;10.20;;;5.15;;
76256;SDS011;65074;50.436;8.672;2023-01-19T05:32:09;9.82;;;5.00;;
76256;SDS011;65074;50.436;8.672;2023-01-19T05:34:35;11.63;;;5.57;;
76256;SDS011;65074;50.436;8.672;2023-01-19T05:37:00;12.20;;;6.05;;
76256;SDS011;65074;50.436;8.672;2023-01-19T05:39:26;10.93;;;5.25;;
76256;SDS011;65074;50.436;8.672;2023-01-19T05:41:52;11.45;;;5.07;;
76256;SDS011;65074;50.436;8.672;2023-01-19T05:44:17;9.25;;;4.72;;
76256;SDS011;65074;50.436;8.672;2023-01-19T05:46:43;10.98;;;6.15;;
76256;SDS011;65074;50.436;8.672;2023-01-19T05:49:08;11.60;;;5.18;;
76256;SDS011;65074;50.436;8.672;2023-01-19T05:51:35;10.52;;;5.28;;
76256;SDS011;65074;50.436;8.672;2023-01-19T05:54:06;13.38;;;5.25;;
76256;SDS011;65074;50.436;8.672;2023-01-19T05:56:33;9.18;;;5.25;;
76256;SDS011;65074;50.436;8.672;2023-01-19T05:58:59;12.75;;;5.88;;
76256;SDS011;65074;50.436;8.672;2023-01-19T06:01:25;12.98;;;5.60;;
76256;SDS011;65074;50.436;8.672;2023-01-19T06:03:51;9.77;;;4.85;;
76256;SDS011;65074;50.436;8.672;2023-01-19T06:06:16;9.70;;;5.82;;
76256;SDS011;65074;50.436;8.672;2023-01-19T06:08:42;10.93;;;4.70;;
76256;SDS011;65074;50.436;8.672;2023-01-19T06:11:09;12.68;;;5.72;;
76256;SDS011;65074;50.436;8.672;2023-01-19T06:13:35;11.05;;;4.95;;
76256;SDS011;65074;50.436;8.672;2023-01-19T06:16:01;14.48;;;6.15;;
76256;SDS011;65074;50.436;8.672;2023-01-19T06:18:27;11.23;;;5.05;;
76256;SDS011;65074;50.436;8.672;2023-01-19T06:20:53;8.27;;;4.90;;
76256;SDS011;65074;50.436;8.672;2023-01-19T06:23:29;9.75;;;5.55;;
76256;SDS011;65074;50.436;8.672;2023-01-19T06:25:55;12.57;;;6.15;;
76256;SDS011;65074;50.436;8.672;2023-01-19T06:28:21;12.70;;;6.00;;
76256;SDS011;65074;50.436;8.672;2023-01-19T06:30:51;13.07;;;6.15;;
76256;SDS011;65074;50.436;8.672;2023-01-19T06:33:18;13.57;;;5.95;;
76256;SDS011;65074;50.436;8.672;2023-01-19T06:35:47;15.55;;;6.32;;
76256;SDS011;65074;50.436;8.672;2023-01-19T06:38:13;9.25;;;5.45;;
76256;SDS011;65074;50.436;8.672;2023-01-19T06:40:39;10.55;;;5.50;;
76256;SDS011;65074;50.436;8.672;2023-01-19T06:43:05;10.77;;;5.88;;
76256;SDS011;65074;50.436;8.672;2023-01-19T06:45:31;9.13;;;5.25;;
76256;SDS011;65074;50.436;8.672;2023-01-19T06:47:56;13.77;;;6.18;;
76256;SDS011;65074;50.436;8.672;2023-01-19T06:50:22;11.82;;;6.13;;
76256;SDS011;65074;50.436;8.672;2023-01-19T06:52:48;13.10;;;6.15;;
76256;SDS011;65074;50.436;8.672;2023-01-19T06:55:15;7.78;;;4.72;;
76256;SDS011;65074;50.436;8.672;2023-01-19T06:57:40;8.63;;;3.92;;
76256;SDS011;65074;50.436;8.672;2023-01-19T07:00:06;13.00;;;5.80;;
76256;SDS011;65074;50.436;8.672;2023-01-19T07:02:36;12.55;;;7.13;;
76256;SDS011;65074;50.436;8.672;2023-01-19T07:05:06;14.32;;;7.22;;
76256;SDS011;65074;50.436;8.672;2023-01-19T07:07:33;14.13;;;7.35;;
76256;SDS011;65074;50.436;8.672;2023-01-19T07:09:58;17.08;;;8.35;;
76256;SDS011;65074;50.436;8.672;2023-01-19T07:12:24;13.55;;;7.78;;
76256;SDS011;65074;50.436;8.672;2023-01-19T07:14:49;15.57;;;7.72;;
76256;SDS011;65074;50.436;8.672;2023-01-19T07:17:15;17.20;;;9.68;;
76256;SDS011;65074;50.436;8.672;2023-01-19T07:19:41;17.95;;;9.05;;
76256;SDS011;65074;50.436;8.672;2023-01-19T07:22:06;12.80;;;7.40;;
76256;SDS011;65074;50.436;8.672;2023-01-19T07:24:31;14.07;;;6.93;;
76256;SDS011;65074;50.436;8.672;2023-01-19T07:27:02;12.77;;;7.32;;
76256;SDS011;65074;50.436;8.672;2023-01-19T07:29:27;14.02;;;6.57;;
76256;SDS011;65074;50.436;8.672;2023-01-19T07:31:53;14.55;;;7.53;;
76256;SDS011;65074;50.436;8.672;2023-01-19T07:34:19;11.48;;;6.10;;
76256;SDS011;65074;50.436;8.672;2023-01-19T07:36:45;12.32;;;5.53;;
76256;SDS011;65074;50.436;8.672;2023-01-19T07:39:10;9.88;;;4.95;;
76256;SDS011;65074;50.436;8.672;2023-01-19T07:41:35;12.57;;;5.60;;
76256;SDS011;65074;50.436;8.672;2023-01-19T07:44:05;9.20;;;5.00;;
76256;SDS011;65074;50.436;8.672;2023-01-19T07:46:30;10.93;;;5.72;;
76256;SDS011;65074;50.436;8.672;2023-01-19T07:48:55;9.48;;;4.80;;
76256;SDS011;65074;50.436;8.672;2023-01-19T07:51:21;8.65;;;5.15;;
76256;SDS011;65074;50.436;8.672;2023-01-19T07:53:48;11.82;;;6.22;;
76256;SDS011;65074;50.436;8.672;2023-01-19T07:56:14;11.65;;;5.22;;
76256;SDS011;65074;50.436;8.672;2023-01-19T07:58:40;10.40;;;5.40;;
76256;SDS011;65074;50.436;8.672;2023-01-19T08:01:09;11.88;;;6.18;;
76256;SDS011;65074;50.436;8.672;2023-01-19T08:03:36;10.15;;;5.25;;
76256;SDS011;65074;50.436;8.672;2023-01-19T08:06:02;9.30;;;4.95;;
76256;SDS011;65074;50.436;8.672;2023-01-19T08:08:29;11.98;;;5.78;;
76256;SDS011;65074;50.436;8.672;2023-01-19T08:10:56;8.88;;;5.88;;
76256;SDS011;65074;50.436;8.672;2023-01-19T08:13:21;10.40;;;5.70;;
76256;SDS011;65074;50.436;8.672;2023-01-19T08:15:50;11.00;;;5.40;;
76256;SDS011;65074;50.436;8.672;2023-01-19T08:18:17;12.40;;;5.20;;
76256;SDS011;65074;50.436;8.672;2023-01-19T08:20:43;12.65;;;5.70;;
76256;SDS011;65074;50.436;8.672;2023-01-19T08:23:08;9.75;;;4.85;;
76256;SDS011;65074;50.436;8.672;2023-01-19T08:25:38;10.23;;;5.60;;
76256;SDS011;65074;50.436;8.672;2023-01-19T08:28:06;12.35;;;6.85;;
76256;SDS011;65074;50.436;8.672;2023-01-19T08:30:32;6.82;;;4.10;;
76256;SDS011;65074;50.436;8.672;2023-01-19T08:32:58;7.60;;;4.90;;
76256;SDS011;65074;50.436;8.672;2023-01-19T08:35:36;9.32;;;4.85;;
76256;SDS011;65074;50.436;8.672;2023-01-19T08:38:03;4.65;;;3.00;;
76256;SDS011;65074;50.436;8.672;2023-01-19T08:40:30;9.60;;;5.93;;
76256;SDS011;65074;50.436;8.672;2023-01-19T08:43:00;10.60;;;4.97;;
76256;SDS011;65074;50.436;8.672;2023-01-19T08:45:32;10.48;;;4.70;;
76256;SDS011;65074;50.436;8.672;2023-01-19T08:47:58;6.55;;;2.88;;
76256;SDS011;65074;50.436;8.672;2023-01-19T08:50:25;7.88;;;4.10;;
76256;SDS011;65074;50.436;8.672;2023-01-19T08:52:54;7.18;;;3.10;;
76256;SDS011;65074;50.436;8.672;2023-01-19T08:55:24;6.18;;;3.50;;
76256;SDS011;65074;50.436;8.672;2023-01-19T08:57:50;7.00;;;3.60;;
76256;SDS011;65074;50.436;8.672;2023-01-19T09:00:21;9.48;;;4.10;;
76256;SDS011;65074;50.436;8.672;2023-01-19T09:02:47;7.03;;;3.70;;
76256;SDS011;65074;50.436;8.672;2023-01-19T09:05:12;6.88;;;2.50;;
76256;SDS011;65074;50.436;8.672;2023-01-19T09:07:38;6.20;;;4.38;;
76256;SDS011;65074;50.436;8.672;2023-01-19T09:10:04;7.05;;;3.63;;
76256;SDS011;65074;50.436;8.672;2023-01-19T09:12:30;6.22;;;2.80;;
76256;SDS011;65074;50.436;8.672;2023-01-19T09:14:55;7.50;;;4.10;;
76256;SDS011;65074;50.436;8.672;2023-01-19T09:17:21;6.47;;;2.95;;
76256;SDS011;65074;50.436;8.672;2023-01-19T09:19:46;5.85;;;3.03;;
76256;SDS011;65074;50.436;8.672;2023-01-19T09:22:12;4.25;;;2.75;;
76256;SDS011;65074;50.436;8.672;2023-01-19T09:24:37;6.85;;;3.80;;
76256;SDS011;65074;50.436;8.672;2023-01-19T09:27:02;7.35;;;4.65;;
76256;SDS011;65074;50.436;8.672;2023-01-19T09:29:28;7.35;;;4.25;;
76256;SDS011;65074;50.436;8.672;2023-01-19T09:31:53;5.53;;;3.13;;
76256;SDS011;65074;50.436;8.672;2023-01-19T09:34:18;6.85;;;3.20;;
76256;SDS011;65074;50.436;8.672;2023-01-19T09:36:45;6.13;;;3.10;;
76256;SDS011;65074;50.436;8.672;2023-01-19T09:39:11;5.35;;;3.20;;
76256;SDS011;65074;50.436;8.672;2023-01-19T09:41:36;3.78;;;2.60;;
76256;SDS011;65074;50.436;8.672;2023-01-19T09:44:06;4.90;;;3.08;;
76256;SDS011;65074;50.436;8.672;2023-01-19T09:46:40;7.35;;;3.80;;
76256;SDS011;65074;50.436;8.672;2023-01-19T09:49:10;3.30;;;2.15;;
76256;SDS011;65074;50.436;8.672;2023-01-19T09:51:43;4.50;;;2.25;;
76256;SDS011;65074;50.436;8.672;2023-01-19T09:54:11;6.03;;;2.95;;
76256;SDS011;65074;50.436;8.672;2023-01-19T09:56:40;5.63;;;2.97;;
76256;SDS011;65074;50.436;8.672;2023-01-19T10:02:03;5.63;;;2.65;;
76256;SDS011;65074;50.436;8.672;2023-01-19T10:12:52;5.68;;;3.35;;
76256;SDS011;65074;50.436;8.672;2023-01-19T10:15:28;4.18;;;1.65;;
76256;SDS011;65074;50.436;8.672;2023-01-19T10:20:48;6.05;;;3.55;;
76256;SDS011;65074;50.436;8.672;2023-01-19T10:23:21;5.95;;;3.28;;
76256;SDS011;65074;50.436;8.672;2023-01-19T10:25:51;4.05;;;2.65;;
76256;SDS011;65074;50.436;8.672;2023-01-19T10:28:18;4.97;;;2.72;;
76256;SDS011;65074;50.436;8.672;2023-01-19T10:30:47;3.42;;;1.75;;
76256;SDS011;65074;50.436;8.672;2023-01-19T10:33:14;3.25;;;1.73;;
76256;SDS011;65074;50.436;8.672;2023-01-19T10:35:39;3.28;;;2.08;;
76256;SDS011;65074;50.436;8.672;2023-01-19T10:38:05;3.45;;;2.30;;
76256;SDS011;65074;50.436;8.672;2023-01-19T10:45:59;4.03;;;1.85;;
76256;SDS011;65074;50.436;8.672;2023-01-19T10:48:35;4.05;;;2.72;;
76256;SDS011;65074;50.436;8.672;2023-01-19T10:51:03;2.75;;;2.08;;
76256;SDS011;65074;50.436;8.672;2023-01-19T10:53:29;3.95;;;1.85;;
76256;SDS011;65074;50.436;8.672;2023-01-19T10:56:11;3.03;;;1.75;;
76256;SDS011;65074;50.436;8.672;2023-01-19T10:58:39;7.50;;;3.60;;
76256;SDS011;65074;50.436;8.672;2023-01-19T11:01:12;5.72;;;2.50;;
76256;SDS011;65074;50.436;8.672;2023-01-19T11:03:40;5.65;;;2.47;;
76256;SDS011;65074;50.436;8.672;2023-01-19T11:06:18;2.72;;;1.70;;
76256;SDS011;65074;50.436;8.672;2023-01-19T11:08:46;4.55;;;2.42;;
76256;SDS011;65074;50.436;8.672;2023-01-19T11:11:12;4.07;;;2.25;;
76256;SDS011;65074;50.436;8.672;2023-01-19T11:13:39;4.38;;;2.90;;
76256;SDS011;65074;50.436;8.672;2023-01-19T11:21:15;2.72;;;1.77;;
76256;SDS011;65074;50.436;8.672;2023-01-19T11:23:49;3.83;;;1.67;;
76256;SDS011;65074;50.436;8.672;2023-01-19T11:26:27;5.18;;;2.28;;
76256;SDS011;65074;50.436;8.672;2023-01-19T11:32:10;4.65;;;2.05;;
76256;SDS011;65074;50.436;8.672;2023-01-19T11:34:43;4.07;;;2.13;;
76256;SDS011;65074;50.436;8.672;2023-01-19T11:39:47;5.25;;;2.40;;
76256;SDS011;65074;50.436;8.672;2023-01-19T11:42:15;6.65;;;2.97;;
76256;SDS011;65074;50.436;8.672;2023-01-19T11:47:22;5.68;;;3.30;;
76256;SDS011;65074;50.436;8.672;2023-01-19T11:50:00;3.53;;;2.42;;
76256;SDS011;65074;50.436;8.672;2023-01-19T11:53:38;5.13;;;2.60;;
76256;SDS011;65074;50.436;8.672;2023-01-19T11:55:42;6.13;;;2.70;;
76256;SDS011;65074;50.436;8.672;2023-01-19T11:58:16;3.63;;;2.17;;
76256;SDS011;65074;50.436;8.672;2023-01-19T12:00:45;6.20;;;3.17;;
76256;SDS011;65074;50.436;8.672;2023-01-19T12:06:00;4.43;;;2.63;;
76256;SDS011;65074;50.436;8.672;2023-01-19T12:08:34;3.78;;;2.30;;
76256;SDS011;65074;50.436;8.672;2023-01-19T12:11:03;4.13;;;2.53;;
76256;SDS011;65074;50.436;8.672;2023-01-19T12:13:32;4.18;;;3.10;;
76256;SDS011;65074;50.436;8.672;2023-01-19T12:16:01;3.65;;;2.08;;
76256;SDS011;65074;50.436;8.672;2023-01-19T12:18:38;4.40;;;2.65;;
76256;SDS011;65074;50.436;8.672;2023-01-19T12:21:07;5.07;;;3.03;;
76256;SDS011;65074;50.436;8.672;2023-01-19T12:26:25;4.03;;;2.28;;
76256;SDS011;65074;50.436;8.672;2023-01-19T12:28:53;5.28;;;3.00;;
76256;SDS011;65074;50.436;8.672;2023-01-19T12:31:23;8.18;;;3.50;;
76256;SDS011;65074;50.436;8.672;2023-01-19T12:33:48;5.70;;;3.10;;
76256;SDS011;65074;50.436;8.672;2023-01-19T12:38:46;4.57;;;2.97;;
76256;SDS011;65074;50.436;8.672;2023-01-19T12:41:29;3.92;;;2.47;;
76256;SDS011;65074;50.436;8.672;2023-01-19T12:46:59;6.15;;;3.60;;
76256;SDS011;65074;50.436;8.672;2023-01-19T12:57:22;8.98;;;3.40;;
76256;SDS011;65074;50.436;8.672;2023-01-19T13:02:55;5.07;;;3.17;;
76256;SDS011;65074;50.436;8.672;2023-01-19T13:05:46;5.25;;;3.08;;
76256;SDS011;65074;50.436;8.672;2023-01-19T13:08:14;6.07;;;2.03;;
76256;SDS011;65074;50.436;8.672;2023-01-19T13:13:19;6.20;;;3.13;;
76256;SDS011;65074;50.436;8.672;2023-01-19T13:15:45;6.10;;;3.00;;
76256;SDS011;65074;50.436;8.672;2023-01-19T13:18:20;4.93;;;2.88;;
76256;SDS011;65074;50.436;8.672;2023-01-19T13:20:57;6.65;;;3.00;;
76256;SDS011;65074;50.436;8.672;2023-01-19T13:23:26;5.15;;;2.80;;
76256;SDS011;65074;50.436;8.672;2023-01-19T13:25:57;5.32;;;3.08;;
76256;SDS011;65074;50.436;8.672;2023-01-19T13:28:30;5.15;;;2.63;;
76256;SDS011;65074;50.436;8.672;2023-01-19T13:31:00;8.38;;;2.17;;
76256;SDS011;65074;50.436;8.672;2023-01-19T13:33:28;3.55;;;2.42;;
76256;SDS011;65074;50.436;8.672;2023-01-19T13:35:59;5.20;;;2.20;;
76256;SDS011;65074;50.436;8.672;2023-01-19T13:38:25;4.88;;;2.85;;
76256;SDS011;65074;50.436;8.672;2023-01-19T13:40:52;3.83;;;2.55;;
76256;SDS011;65074;50.436;8.672;2023-01-19T13:43:22;6.55;;;3.20;;
76256;SDS011;65074;50.436;8.672;2023-01-19T13:45:52;4.30;;;2.65;;
76256;SDS011;65074;50.436;8.672;2023-01-19T13:48:19;7.85;;;3.45;;
76256;SDS011;65074;50.436;8.672;2023-01-19T13:50:56;5.63;;;3.22;;
76256;SDS011;65074;50.436;8.672;2023-01-19T13:53:21;6.28;;;2.78;;
76256;SDS011;65074;50.436;8.672;2023-01-19T13:56:04;4.32;;;2.75;;
76256;SDS011;65074;50.436;8.672;2023-01-19T14:01:35;4.47;;;2.60;;
76256;SDS011;65074;50.436;8.672;2023-01-19T14:04:05;6.90;;;2.92;;
76256;SDS011;65074;50.436;8.672;2023-01-19T14:06:33;5.10;;;2.65;;
76256;SDS011;65074;50.436;8.672;2023-01-19T14:09:05;4.43;;;1.92;;
76256;SDS011;65074;50.436;8.672;2023-01-19T14:11:31;3.45;;;2.35;;
76256;SDS011;65074;50.436;8.672;2023-01-19T14:13:57;5.25;;;2.45;;
76256;SDS011;65074;50.436;8.672;2023-01-19T14:16:22;5.47;;;2.63;;
76256;SDS011;65074;50.436;8.672;2023-01-19T14:18:57;5.43;;;2.17;;
76256;SDS011;65074;50.436;8.672;2023-01-19T14:21:24;4.60;;;2.92;;
76256;SDS011;65074;50.436;8.672;2023-01-19T14:23:50;6.10;;;2.72;;
76256;SDS011;65074;50.436;8.672;2023-01-19T14:32:12;4.68;;;2.70;;
76256;SDS011;65074;50.436;8.672;2023-01-19T14:34:43;7.65;;;2.80;;
76256;SDS011;65074;50.436;8.672;2023-01-19T14:45:00;4.00;;;2.28;;
76256;SDS011;65074;50.436;8.672;2023-01-19T14:47:29;5.97;;;3.80;;
76256;SDS011;65074;50.436;8.672;2023-01-19T14:50:05;3.83;;;2.40;;
76256;SDS011;65074;50.436;8.672;2023-01-19T14:52:42;6.20;;;3.00;;
76256;SDS011;65074;50.436;8.672;2023-01-19T14:55:17;5.65;;;3.15;;
76256;SDS011;65074;50.436;8.672;2023-01-19T15:00:15;6.13;;;2.88;;
76256;SDS011;65074;50.436;8.672;2023-01-19T15:02:43;4.45;;;2.60;;
76256;SDS011;65074;50.436;8.672;2023-01-19T15:05:09;5.07;;;2.70;;
76256;SDS011;65074;50.436;8.672;2023-01-19T15:07:35;3.63;;;2.38;;
76256;SDS011;65074;50.436;8.672;2023-01-19T15:10:03;4.97;;;2.72;;
76256;SDS011;65074;50.436;8.672;2023-01-19T15:12:29;7.00;;;3.28;;
76256;SDS011;65074;50.436;8.672;2023-01-19T15:14:54;5.13;;;3.25;;
76256;SDS011;65074;50.436;8.672;2023-01-19T15:17:20;7.85;;;3.70;;
76256;SDS011;65074;50.436;8.672;2023-01-19T15:19:50;27.52;;;12.18;;
76256;SDS011;65074;50.436;8.672;2023-01-19T15:22:17;7.13;;;2.85;;
76256;SDS011;65074;50.436;8.672;2023-01-19T15:24:42;18.15;;;6.35;;
76256;SDS011;65074;50.436;8.672;2023-01-19T15:27:10;7.95;;;4.13;;
76256;SDS011;65074;50.436;8.672;2023-01-19T15:29:36;9.48;;;4.93;;
76256;SDS011;65074;50.436;8.672;2023-01-19T15:32:04;9.60;;;5.07;;
76256;SDS011;65074;50.436;8.672;2023-01-19T15:34:30;21.65;;;10.63;;
76256;SDS011;65074;50.436;8.672;2023-01-19T15:36:56;17.52;;;9.70;;
76256;SDS011;65074;50.436;8.672;2023-01-19T15:39:22;13.13;;;7.93;;
76256;SDS011;65074;50.436;8.672;2023-01-19T15:41:47;6.57;;;4.25;;
76256;SDS011;65074;50.436;8.672;2023-01-19T15:44:20;6.10;;;3.85;;
76256;SDS011;65074;50.436;8.672;2023-01-19T15:46:45;6.63;;;3.53;;
76256;SDS011;65074;50.436;8.672;2023-01-19T15:49:10;7.63;;;3.42;;
76256;SDS011;65074;50.436;8.672;2023-01-19T15:51:36;6.07;;;3.42;;
76256;SDS011;65074;50.436;8.672;2023-01-19T15:54:01;9.13;;;4.50;;
76256;SDS011;65074;50.436;8.672;2023-01-19T15:56:27;6.00;;;3.15;;
76256;SDS011;65074;50.436;8.672;2023-01-19T15:58:54;7.60;;;4.20;;
76256;SDS011;65074;50.436;8.672;2023-01-19T16:01:21;6.10;;;3.17;;
76256;SDS011;65074;50.436;8.672;2023-01-19T16:03:48;7.68;;;3.28;;
76256;SDS011;65074;50.436;8.672;2023-01-19T16:06:14;6.82;;;3.30;;
76256;SDS011;65074;50.436;8.672;2023-01-19T16:08:40;10.63;;;5.10;;
76256;SDS011;65074;50.436;8.672;2023-01-19T16:11:07;6.38;;;4.03;;
76256;SDS011;65074;50.436;8.672;2023-01-19T16:13:34;8.00;;;3.60;;
76256;SDS011;65074;50.436;8.672;2023-01-19T16:16:01;6.93;;;4.05;;
76256;SDS011;65074;50.436;8.672;2023-01-19T16:18:47;7.47;;;4.07;;
76256;SDS011;65074;50.436;8.672;2023-01-19T16:21:13;7.72;;;4.07;;
76256;SDS011;65074;50.436;8.672;2023-01-19T16:23:39;11.15;;;4.18;;
76256;SDS011;65074;50.436;8.672;2023-01-19T16:26:06;8.32;;;3.97;;
76256;SDS011;65074;50.436;8.672;2023-01-19T16:28:45;6.45;;;3.58;;
76256;SDS011;65074;50.436;8.672;2023-01-19T16:31:11;8.32;;;3.95;;
76256;SDS011;65074;50.436;8.672;2023-01-19T16:33:37;8.35;;;3.72;;
76256;SDS011;65074;50.436;8.672;2023-01-19T16:39:05;10.55;;;3.88;;